Fort Walton Beach, FL (32547)

6:25 AM CST on February 12, 2016 (GMT -0600)
Forest Heights | | Change Station
CLOSE
Current Station
Personal Weather Station
Location: Fort Walton Beach, FL
Elevation: 72 ft
Nearby Weather Stations

Elev 72 ft 30.46 °N, 86.63 °W | Updated 9 minutes ago

Partly Cloudy
Partly Cloudy
58.6 °F
Feels Like 58.6 °F
N
1.7
Wind Variable Wind from West

Today
High -- | Low -- °F
--% Chance of Precip.
Yesterday
High -- | Low -- °F
Precip. -- in
Pressure 30.20 in
Visibility 10.0 miles
Clouds Clear
Dew Point 56 °F
Humidity 92%
Rainfall 0.00 in
Snow Depth Not available.
6:29 AM 5:31 PM
Waxing Crescent, 20% visible
METAR KHRT 121158Z AUTO 25008KT 10SM CLR 16/13 A3019 RMK AO2 SLP225 T01570132 10163 20155 52013 $
Pressure 30.20 in
Visibility 10.0 miles
Clouds Clear
Dew Point 56 °F
Humidity 92%
Rainfall 0.00 in
Snow Depth Not available.
6:29 AM 5:31 PM
Waxing Crescent, 20% visible
METAR KHRT 121158Z AUTO 25008KT 10SM CLR 16/13 A3019 RMK AO2 SLP225 T01570132 10163 20155 52013 $

10-Day Weather Forecast

Almanac

Astronomy

Feb. 12, 2016 Rise Set
Actual Time
Civil Twilight
Nautical Twilight
Astronomical Twilight
Moon
Length of Visible Light
Length of Day
Tomorrow will be .
, % of the Moon is Illuminated

Today's Extremes

State Highs State Lows

Community

WunderPhotos

Upload Photos

1,892,295 photos uploaded!

WunderBlog® & News

Nearby

Air Quality

  Air Quality AQ Index Pollutant
Not available.

Snow Depth

Station Depth Elevation

Earthquake Activity

City Distance Mag. Time & Date
Minimum magnitude displayed is 2.5.

Coastal Water Temperatures

Place Temperature

Stations

Nearby Weather Stations

Station Location Temp. Windchill Dew Point Humidity Wind Precip. Elev Updated Type
                   

Watches & Warnings

There are currently no watches in effect.